KPMH/PMH METAR and TAF weather

Enter ICAO airport designator
Station Type Date Time Source
KPMH METAR 2019/06/18 04:40 UTC NOAA

KPMH 180440Z AUTO 18004KT 5SM RA SCT080 OVC110 17/17 A3002 RMK AO2 LTG DSNT S AND SW P0009 T01730173


Station Type Date Time Source
KPMH Decoded METAR 2019/06/18 04:40 UTC NOAA

Station name not available
Jun 18, 2019 - 12:40 AM EDT / 2019.06.18 0440 UTC
Wind: from the S (180 degrees) at 5 MPH (4 KT):0
Visibility: 5 mile(s):0
Sky conditions: overcast
Weather: rain; Lightning observed
Precipitation last hour: 0.09 inches
Temperature: 63.1 F (17.3 C)
Dew Point: 63.1 F (17.3 C)
Relative Humidity: 100%
Pressure (altimeter): 30.02 in. Hg (1016 hPa)
ob: KPMH 180440Z AUTO 18004KT 5SM RA SCT080 OVC110 17/17 A3002 RMK AO2 LTG DSNT S AND SW P0009 T01730173
cycle: 4

Station Type Date Time Source
KPMH TAF UTC NOAA

Error!

Example: see airport list